Aviation Digital Data Service (ADDS)

Output produced by METARs form (1515 UTC 19 January 2018)
found at http://aviationweather.gov/adds/metars/
 
KTYR 191151Z 1912/2012 18004KT P6SM OVC035 
     FM191500 19010KT P6SM OVC040 
     FM200000 17010KT P6SM OVC035 
     TEMPO 2002/2006 OVC030 
     FM200600 19008KT P6SM OVC025 
     FM200800 17012KT 3SM BR OVC007 
     FM201100 18012KT 2SM BR OVC007